^^
Meteo Knjazevac Station Historical Data
Daily Summary for July 7, 2021 Units:  Both    English   Metric
Daily Weekly Monthly Yearly Custom
  High: Low: Average:
Temperature: 51.8 °F /  11 °C 49.1 °F /  9.5 °C 50.4 °F /  10.2 °C
Dew Point: 45 °F /  7.2 °C 43.6 °F /  6.4 °C 44.3 °F /  6.8 °C
Humidity: 83% 76% 80%
Wind Speed: 3mph /  4.8km/h - 0.8mph /  1.3km/h
Wind Gust: 6mph /  9.7km/h - -
Wind- - East
Pressure: 30.01 in /  1016.1 hPa 29.99 in /  1015.5 hPa -
Precipitation: 0.00 in /  0 mm    
Historical Graphs
 
 
Tabular Data for July 7, 2021
Time Temperature Dew Point Pressure Wind Wind Speed Wind Gust Humidity Rainfall Rate (Hourly) solar Conditions
00:00 51.8 °F /  11 °C 44.8 °F /  7.1 °C 30.01in /  1016.1hPa Calm   2mph /  3.2km/h 77% 0.00in /  0mm 0 W/m2
00:10 51.6 °F /  10.9 °C 45 °F /  7.2 °C 30.00in /  1015.8hPa Calm   2mph /  3.2km/h 78% 0.00in /  0mm 0 W/m2
00:20 51.4 °F /  10.8 °C 44.7 °F /  7.1 °C 30.01in /  1016.1hPa North 1mph /  1.6km/h 2mph /  3.2km/h 78% 0.00in /  0mm 0 W/m2
00:30 51.1 °F /  10.6 °C 44.5 °F /  6.9 °C 30.01in /  1016.1hPa Calm   2mph /  3.2km/h 78% 0.00in /  0mm 0 W/m2
00:40 50.7 °F /  10.4 °C 44.4 °F /  6.9 °C 30.01in /  1016.1hPa Calm   2mph /  3.2km/h 79% 0.00in /  0mm 0 W/m2
00:50 50.2 °F /  10.1 °C 43.9 °F /  6.6 °C 30.01in /  1016.1hPa Calm   3mph /  4.8km/h 79% 0.00in /  0mm 0 W/m2
01:00 49.8 °F /  9.9 °C 43.9 °F /  6.6 °C 30.01in /  1016.1hPa NNW 1mph /  1.6km/h 2mph /  3.2km/h 80% 0.00in /  0mm 0 W/m2
01:10 49.8 °F /  9.9 °C 43.9 °F /  6.6 °C 30.00in /  1015.8hPa Calm   2mph /  3.2km/h 80% 0.00in /  0mm 0 W/m2
01:20 49.8 °F /  9.9 °C 44.2 °F /  6.8 °C 30.00in /  1015.8hPa Calm   2mph /  3.2km/h 81% 0.00in /  0mm 0 W/m2
01:30 49.5 °F /  9.7 °C 43.9 °F /  6.6 °C 30.00in /  1015.8hPa Calm   3mph /  4.8km/h 81% 0.00in /  0mm 0 W/m2
01:40 49.3 °F /  9.6 °C 43.7 °F /  6.5 °C 30.00in /  1015.8hPa North 1mph /  1.6km/h 3mph /  4.8km/h 81% 0.00in /  0mm 0 W/m2
01:50 49.2 °F /  9.6 °C 43.6 °F /  6.4 °C 30.00in /  1015.8hPa Calm   3mph /  4.8km/h 81% 0.00in /  0mm 0 W/m2
02:10 49.2 °F /  9.6 °C 44.2 °F /  6.8 °C 30.00in /  1015.8hPa NNE 3mph /  4.8km/h 6mph /  9.7km/h 83% 0.00in /  0mm 0 W/m2
02:20 49.5 °F /  9.7 °C 44.5 °F /  6.9 °C 30.00in /  1015.8hPa Calm   6mph /  9.7km/h 83% 0.00in /  0mm 0 W/m2
02:30 49.1 °F /  9.5 °C 43.8 °F /  6.6 °C 30.00in /  1015.8hPa NNE 2mph /  3.2km/h 6mph /  9.7km/h 82% 0.00in /  0mm 0 W/m2
02:40 49.3 °F /  9.6 °C 44.4 °F /  6.9 °C 29.99in /  1015.5hPa NNE 2mph /  3.2km/h 5mph /  8km/h 83% 0.00in /  0mm 0 W/m2
02:50 49.5 °F /  9.7 °C 44.2 °F /  6.8 °C 30.00in /  1015.8hPa North 1mph /  1.6km/h 3mph /  4.8km/h 82% 0.00in /  0mm 0 W/m2
03:00 49.8 °F /  9.9 °C 44.2 °F /  6.8 °C 29.99in /  1015.5hPa NNE 2mph /  3.2km/h 5mph /  8km/h 81% 0.00in /  0mm 0 W/m2
05:10 51.8 °F /  11 °C 44.5 °F /  6.9 °C 29.99in /  1015.5hPa NNE 1mph /  1.6km/h 5mph /  8km/h 76% 0.00in /  0mm 0 W/m2
05:20 51.4 °F /  10.8 °C 44.5 °F /  6.9 °C 30.00in /  1015.8hPa NNE 1mph /  1.6km/h 5mph /  8km/h 77% 0.00in /  0mm 3 W/m2
05:30 51.3 °F /  10.7 °C 44.6 °F /  7 °C 30.00in /  1015.8hPa NNE 2mph /  3.2km/h 3mph /  4.8km/h 78% 0.00in /  0mm 9 W/m2
05:40 51.3 °F /  10.7 °C 44.3 °F /  6.8 °C 30.00in /  1015.8hPa ENE 1mph /  1.6km/h 2mph /  3.2km/h 77% 0.00in /  0mm 18 W/m2
05:50 51.3 °F /  10.7 °C 44.6 °F /  7 °C 30.00in /  1015.8hPa NNW 1mph /  1.6km/h 2mph /  3.2km/h 78% 0.00in /  0mm 30 W/m2
06:00 51.4 °F /  10.8 °C 44.7 °F /  7.1 °C 30.00in /  1015.8hPa NNE 1mph /  1.6km/h 3mph /  4.8km/h 78% 0.00in /  0mm 43 W/m2
06:10 51.6 °F /  10.9 °C 45 °F /  7.2 °C 30.00in /  1015.8hPa Calm   5mph /  8km/h 78% 0.00in /  0mm 56 W/m2
Knjazevac, Serbia
Compliments of Weather Underground - 2 mb